sensor_id;sensor_type;location;lat;lon;timestamp;pressure;altitude;pressure_sealevel;temperature;humidity
72038;BME280;59900;50.788;12.904;2022-10-31T00:01:53;97980.16;;;16.17;55.73
72038;BME280;59900;50.788;12.904;2022-10-31T00:04:18;97986.59;;;16.03;56.48
72038;BME280;59900;50.788;12.904;2022-10-31T00:06:44;97995.31;;;15.85;56.65
72038;BME280;59900;50.788;12.904;2022-10-31T00:09:09;97989.06;;;15.80;56.66
72038;BME280;59900;50.788;12.904;2022-10-31T00:11:35;97980.22;;;15.86;55.99
72038;BME280;59900;50.788;12.904;2022-10-31T00:14:00;97984.91;;;15.90;56.09
72038;BME280;59900;50.788;12.904;2022-10-31T00:16:27;97988.94;;;15.93;56.42
72038;BME280;59900;50.788;12.904;2022-10-31T00:18:59;97987.31;;;15.92;56.23
72038;BME280;59900;50.788;12.904;2022-10-31T00:21:25;97989.69;;;16.00;55.49
72038;BME280;59900;50.788;12.904;2022-10-31T00:23:51;97982.72;;;16.05;55.31
72038;BME280;59900;50.788;12.904;2022-10-31T00:26:17;97981.47;;;16.08;55.21
72038;BME280;59900;50.788;12.904;2022-10-31T00:28:42;97985.28;;;16.12;55.20
72038;BME280;59900;50.788;12.904;2022-10-31T00:31:09;97986.47;;;16.16;55.31
72038;BME280;59900;50.788;12.904;2022-10-31T00:33:37;97985.34;;;16.23;55.14
72038;BME280;59900;50.788;12.904;2022-10-31T00:36:04;97989.78;;;16.30;54.81
72038;BME280;59900;50.788;12.904;2022-10-31T00:38:29;97979.16;;;16.30;55.13
72038;BME280;59900;50.788;12.904;2022-10-31T00:40:54;97988.69;;;16.19;54.90
72038;BME280;59900;50.788;12.904;2022-10-31T00:43:20;97987.06;;;16.18;55.15
72038;BME280;59900;50.788;12.904;2022-10-31T00:45:45;97983.59;;;16.17;55.63
72038;BME280;59900;50.788;12.904;2022-10-31T00:48:11;97989.69;;;16.18;55.63
72038;BME280;59900;50.788;12.904;2022-10-31T00:50:36;97985.94;;;16.07;55.86
72038;BME280;59900;50.788;12.904;2022-10-31T00:53:02;97988.81;;;16.06;55.56
72038;BME280;59900;50.788;12.904;2022-10-31T00:55:27;97991.88;;;16.03;55.84
72038;BME280;59900;50.788;12.904;2022-10-31T00:57:52;97989.53;;;15.95;56.12
72038;BME280;59900;50.788;12.904;2022-10-31T01:00:18;97991.88;;;15.85;57.00
72038;BME280;59900;50.788;12.904;2022-10-31T01:02:43;97999.78;;;15.66;57.60
72038;BME280;59900;50.788;12.904;2022-10-31T01:05:08;97998.00;;;15.60;57.43
72038;BME280;59900;50.788;12.904;2022-10-31T01:07:38;97997.47;;;15.52;57.86
72038;BME280;59900;50.788;12.904;2022-10-31T01:10:05;97991.56;;;15.50;57.85
72038;BME280;59900;50.788;12.904;2022-10-31T01:12:36;97993.81;;;15.46;57.84
72038;BME280;59900;50.788;12.904;2022-10-31T01:15:01;97999.09;;;15.46;57.43
72038;BME280;59900;50.788;12.904;2022-10-31T01:17:27;97991.63;;;15.37;58.19
72038;BME280;59900;50.788;12.904;2022-10-31T01:19:52;97992.66;;;15.36;58.26
72038;BME280;59900;50.788;12.904;2022-10-31T01:22:17;97994.44;;;15.42;58.03
72038;BME280;59900;50.788;12.904;2022-10-31T01:24:42;97990.63;;;15.38;58.39
72038;BME280;59900;50.788;12.904;2022-10-31T01:27:08;97996.78;;;15.32;58.40
72038;BME280;59900;50.788;12.904;2022-10-31T01:29:33;97993.34;;;15.25;58.61
72038;BME280;59900;50.788;12.904;2022-10-31T01:31:58;97996.41;;;15.22;58.63
72038;BME280;59900;50.788;12.904;2022-10-31T01:34:23;97997.06;;;15.17;58.62
72038;BME280;59900;50.788;12.904;2022-10-31T01:36:49;97997.72;;;15.06;59.41
72038;BME280;59900;50.788;12.904;2022-10-31T01:39:17;97997.22;;;14.91;59.69
72038;BME280;59900;50.788;12.904;2022-10-31T01:41:46;97995.78;;;14.88;60.23
72038;BME280;59900;50.788;12.904;2022-10-31T01:46:45;98002.16;;;14.81;60.48
72038;BME280;59900;50.788;12.904;2022-10-31T01:49:17;98007.88;;;14.78;60.61
72038;BME280;59900;50.788;12.904;2022-10-31T01:51:56;98001.97;;;14.76;60.52
72038;BME280;59900;50.788;12.904;2022-10-31T01:54:26;98007.28;;;14.69;60.59
72038;BME280;59900;50.788;12.904;2022-10-31T01:56:54;98006.72;;;14.61;61.00
72038;BME280;59900;50.788;12.904;2022-10-31T01:59:21;98010.19;;;14.54;61.14
72038;BME280;59900;50.788;12.904;2022-10-31T02:01:50;98006.56;;;14.49;61.47
72038;BME280;59900;50.788;12.904;2022-10-31T02:04:17;98005.56;;;14.50;61.29
72038;BME280;59900;50.788;12.904;2022-10-31T02:06:58;98003.28;;;14.53;61.54
72038;BME280;59900;50.788;12.904;2022-10-31T02:09:26;98000.63;;;14.53;61.17
72038;BME280;59900;50.788;12.904;2022-10-31T02:11:52;97995.16;;;14.55;61.29
72038;BME280;59900;50.788;12.904;2022-10-31T02:14:24;98001.03;;;14.57;61.24
72038;BME280;59900;50.788;12.904;2022-10-31T02:16:50;97996.53;;;14.64;60.91
72038;BME280;59900;50.788;12.904;2022-10-31T02:19:26;97995.91;;;14.69;60.94
72038;BME280;59900;50.788;12.904;2022-10-31T02:22:09;97998.94;;;14.72;60.66
72038;BME280;59900;50.788;12.904;2022-10-31T02:25:02;97996.47;;;14.77;60.40
72038;BME280;59900;50.788;12.904;2022-10-31T02:28:01;98005.78;;;14.86;60.07
72038;BME280;59900;50.788;12.904;2022-10-31T02:33:43;98004.91;;;14.99;59.90
72038;BME280;59900;50.788;12.904;2022-10-31T02:36:19;98001.31;;;14.87;60.69
72038;BME280;59900;50.788;12.904;2022-10-31T02:38:54;98005.59;;;14.88;60.60
72038;BME280;59900;50.788;12.904;2022-10-31T02:41:43;98004.41;;;14.77;61.00
72038;BME280;59900;50.788;12.904;2022-10-31T02:46:53;98001.47;;;14.47;61.75
72038;BME280;59900;50.788;12.904;2022-10-31T02:49:27;98005.97;;;14.40;62.28
72038;BME280;59900;50.788;12.904;2022-10-31T02:51:53;98010.28;;;14.35;62.43
72038;BME280;59900;50.788;12.904;2022-10-31T02:54:22;98008.22;;;14.30;62.46
72038;BME280;59900;50.788;12.904;2022-10-31T02:56:48;98005.78;;;14.22;62.24
72038;BME280;59900;50.788;12.904;2022-10-31T02:59:15;98010.69;;;14.12;62.89
72038;BME280;59900;50.788;12.904;2022-10-31T03:04:29;98003.78;;;14.11;63.53
72038;BME280;59900;50.788;12.904;2022-10-31T03:07:23;98008.66;;;14.21;62.98
72038;BME280;59900;50.788;12.904;2022-10-31T03:12:40;98004.56;;;14.31;63.12
72038;BME280;59900;50.788;12.904;2022-10-31T03:15:15;98010.84;;;14.30;62.86
72038;BME280;59900;50.788;12.904;2022-10-31T03:18:08;98007.81;;;14.27;62.97
72038;BME280;59900;50.788;12.904;2022-10-31T03:20:38;98005.38;;;14.25;62.95
72038;BME280;59900;50.788;12.904;2022-10-31T03:23:07;98019.25;;;14.21;63.02
72038;BME280;59900;50.788;12.904;2022-10-31T03:25:35;98010.91;;;14.17;63.29
72038;BME280;59900;50.788;12.904;2022-10-31T03:28:02;98008.66;;;14.14;63.39
72038;BME280;59900;50.788;12.904;2022-10-31T03:30:30;98013.75;;;14.09;63.81
72038;BME280;59900;50.788;12.904;2022-10-31T03:33:00;98014.38;;;13.98;64.48
72038;BME280;59900;50.788;12.904;2022-10-31T03:35:28;98013.59;;;13.91;64.56
72038;BME280;59900;50.788;12.904;2022-10-31T03:37:56;98024.34;;;13.83;64.78
72038;BME280;59900;50.788;12.904;2022-10-31T03:40:23;98026.19;;;13.76;65.27
72038;BME280;59900;50.788;12.904;2022-10-31T03:43:03;98029.84;;;13.68;65.68
72038;BME280;59900;50.788;12.904;2022-10-31T03:45:36;98029.84;;;13.62;65.89
72038;BME280;59900;50.788;12.904;2022-10-31T03:48:03;98031.47;;;13.56;65.89
72038;BME280;59900;50.788;12.904;2022-10-31T03:50:40;98026.59;;;13.46;66.15
72038;BME280;59900;50.788;12.904;2022-10-31T03:53:14;98036.53;;;13.38;66.48
72038;BME280;59900;50.788;12.904;2022-10-31T03:55:47;98032.88;;;13.32;66.77
72038;BME280;59900;50.788;12.904;2022-10-31T03:58:24;98037.94;;;13.27;67.21
72038;BME280;59900;50.788;12.904;2022-10-31T04:00:54;98032.84;;;13.19;67.10
72038;BME280;59900;50.788;12.904;2022-10-31T04:03:25;98045.41;;;13.11;67.76
72038;BME280;59900;50.788;12.904;2022-10-31T04:05:53;98046.16;;;13.05;67.85
72038;BME280;59900;50.788;12.904;2022-10-31T04:08:24;98044.94;;;12.94;68.01
72038;BME280;59900;50.788;12.904;2022-10-31T04:10:50;98038.63;;;12.88;68.51
72038;BME280;59900;50.788;12.904;2022-10-31T04:13:29;98032.53;;;12.88;68.17
72038;BME280;59900;50.788;12.904;2022-10-31T04:15:56;98040.06;;;12.91;68.24
72038;BME280;59900;50.788;12.904;2022-10-31T04:18:23;98034.13;;;12.89;68.33
72038;BME280;59900;50.788;12.904;2022-10-31T04:20:48;98040.06;;;12.91;68.23
72038;BME280;59900;50.788;12.904;2022-10-31T04:23:19;98029.69;;;12.89;68.49
72038;BME280;59900;50.788;12.904;2022-10-31T04:25:44;98039.03;;;12.92;68.38
72038;BME280;59900;50.788;12.904;2022-10-31T04:28:10;98037.59;;;12.89;68.57
72038;BME280;59900;50.788;12.904;2022-10-31T04:30:35;98035.78;;;12.90;68.63
72038;BME280;59900;50.788;12.904;2022-10-31T04:33:00;98031.91;;;12.86;68.68
72038;BME280;59900;50.788;12.904;2022-10-31T04:35:25;98030.28;;;12.85;69.03
72038;BME280;59900;50.788;12.904;2022-10-31T04:37:51;98032.94;;;12.85;68.98
72038;BME280;59900;50.788;12.904;2022-10-31T04:40:16;98032.28;;;12.83;69.14
72038;BME280;59900;50.788;12.904;2022-10-31T04:42:41;98038.38;;;12.83;69.09
72038;BME280;59900;50.788;12.904;2022-10-31T04:45:07;98041.28;;;12.88;68.95
72038;BME280;59900;50.788;12.904;2022-10-31T04:47:33;98046.53;;;12.88;69.18
72038;BME280;59900;50.788;12.904;2022-10-31T04:49:58;98036.19;;;12.87;69.29
72038;BME280;59900;50.788;12.904;2022-10-31T04:52:23;98041.84;;;12.84;69.19
72038;BME280;59900;50.788;12.904;2022-10-31T04:54:49;98040.84;;;12.85;69.46
72038;BME280;59900;50.788;12.904;2022-10-31T04:57:14;98035.34;;;12.86;69.59
72038;BME280;59900;50.788;12.904;2022-10-31T04:59:39;98040.44;;;12.88;69.54
72038;BME280;59900;50.788;12.904;2022-10-31T05:02:04;98040.66;;;12.93;69.71
72038;BME280;59900;50.788;12.904;2022-10-31T05:04:30;98039.84;;;12.92;69.53
72038;BME280;59900;50.788;12.904;2022-10-31T05:06:55;98033.34;;;12.95;69.29
72038;BME280;59900;50.788;12.904;2022-10-31T05:09:20;98027.91;;;12.97;69.58
72038;BME280;59900;50.788;12.904;2022-10-31T05:11:45;98033.78;;;12.99;69.40
72038;BME280;59900;50.788;12.904;2022-10-31T05:14:11;98036.41;;;12.99;69.46
72038;BME280;59900;50.788;12.904;2022-10-31T05:16:36;98034.38;;;12.94;69.84
72038;BME280;59900;50.788;12.904;2022-10-31T05:19:01;98034.38;;;13.01;69.46
72038;BME280;59900;50.788;12.904;2022-10-31T05:21:26;98029.91;;;13.01;69.60
72038;BME280;59900;50.788;12.904;2022-10-31T05:23:52;98035.19;;;13.01;69.57
72038;BME280;59900;50.788;12.904;2022-10-31T05:26:17;98029.91;;;12.94;69.96
72038;BME280;59900;50.788;12.904;2022-10-31T05:28:42;98037.00;;;13.01;69.71
72038;BME280;59900;50.788;12.904;2022-10-31T05:31:07;98041.09;;;13.03;69.79
72038;BME280;59900;50.788;12.904;2022-10-31T05:33:33;98038.88;;;13.07;69.68
72038;BME280;59900;50.788;12.904;2022-10-31T05:35:58;98043.59;;;13.11;70.06
72038;BME280;59900;50.788;12.904;2022-10-31T05:38:23;98044.41;;;13.18;69.41
72038;BME280;59900;50.788;12.904;2022-10-31T05:40:48;98048.50;;;13.21;69.31
72038;BME280;59900;50.788;12.904;2022-10-31T05:43:14;98040.56;;;13.14;69.19
72038;BME280;59900;50.788;12.904;2022-10-31T05:45:39;98051.03;;;13.01;70.19
72038;BME280;59900;50.788;12.904;2022-10-31T05:48:04;98046.94;;;12.92;70.59
72038;BME280;59900;50.788;12.904;2022-10-31T05:50:31;98049.97;;;12.89;70.38
72038;BME280;59900;50.788;12.904;2022-10-31T05:52:59;98046.34;;;12.90;70.19
72038;BME280;59900;50.788;12.904;2022-10-31T05:55:24;98051.00;;;12.88;70.33
72038;BME280;59900;50.788;12.904;2022-10-31T05:57:51;98054.22;;;12.83;70.34
72038;BME280;59900;50.788;12.904;2022-10-31T06:00:16;98053.19;;;12.78;70.66
72038;BME280;59900;50.788;12.904;2022-10-31T06:02:41;98056.81;;;12.70;70.51
72038;BME280;59900;50.788;12.904;2022-10-31T06:05:07;98063.44;;;12.60;71.01
72038;BME280;59900;50.788;12.904;2022-10-31T06:07:33;98064.38;;;12.46;71.75
72038;BME280;59900;50.788;12.904;2022-10-31T06:09:59;98063.94;;;12.35;71.87
72038;BME280;59900;50.788;12.904;2022-10-31T06:12:25;98065.50;;;12.30;72.86
72038;BME280;59900;50.788;12.904;2022-10-31T06:14:50;98061.44;;;12.27;73.21
72038;BME280;59900;50.788;12.904;2022-10-31T06:17:15;98067.97;;;12.31;73.38
72038;BME280;59900;50.788;12.904;2022-10-31T06:19:41;98059.84;;;12.33;73.33
72038;BME280;59900;50.788;12.904;2022-10-31T06:22:06;98066.75;;;12.34;73.60
72038;BME280;59900;50.788;12.904;2022-10-31T06:24:31;98061.72;;;12.39;73.41
72038;BME280;59900;50.788;12.904;2022-10-31T06:26:56;98063.78;;;12.44;73.28
72038;BME280;59900;50.788;12.904;2022-10-31T06:29:22;98062.56;;;12.46;73.25
72038;BME280;59900;50.788;12.904;2022-10-31T06:31:47;98070.28;;;12.48;73.35
72038;BME280;59900;50.788;12.904;2022-10-31T06:34:12;98071.09;;;12.48;73.22
72038;BME280;59900;50.788;12.904;2022-10-31T06:36:37;98073.72;;;12.48;73.20
72038;BME280;59900;50.788;12.904;2022-10-31T06:39:03;98073.72;;;12.48;73.34
72038;BME280;59900;50.788;12.904;2022-10-31T06:41:28;98074.97;;;12.52;73.35
72038;BME280;59900;50.788;12.904;2022-10-31T06:43:53;98079.47;;;12.58;73.21
72038;BME280;59900;50.788;12.904;2022-10-31T06:46:19;98079.69;;;12.63;73.06
72038;BME280;59900;50.788;12.904;2022-10-31T06:48:44;98076.66;;;12.66;73.06
72038;BME280;59900;50.788;12.904;2022-10-31T06:51:09;98082.75;;;12.67;72.92
72038;BME280;59900;50.788;12.904;2022-10-31T06:53:34;98090.47;;;12.68;72.89
72038;BME280;59900;50.788;12.904;2022-10-31T06:56:00;98082.38;;;12.70;73.08
72038;BME280;59900;50.788;12.904;2022-10-31T06:58:25;98082.97;;;12.72;72.83
72038;BME280;59900;50.788;12.904;2022-10-31T07:00:50;98087.03;;;12.68;72.96
72038;BME280;59900;50.788;12.904;2022-10-31T07:03:16;98091.72;;;12.72;73.19
72038;BME280;59900;50.788;12.904;2022-10-31T07:05:42;98089.50;;;12.76;72.87
72038;BME280;59900;50.788;12.904;2022-10-31T07:08:09;98090.53;;;12.81;72.97
72038;BME280;59900;50.788;12.904;2022-10-31T07:10:36;98090.53;;;12.81;72.96
72038;BME280;59900;50.788;12.904;2022-10-31T07:13:04;98104.16;;;12.85;72.66
72038;BME280;59900;50.788;12.904;2022-10-31T07:15:33;98101.91;;;12.82;73.06
72038;BME280;59900;50.788;12.904;2022-10-31T07:18:02;98108.59;;;12.84;73.16
72038;BME280;59900;50.788;12.904;2022-10-31T07:20:29;98113.28;;;12.89;72.69
72038;BME280;59900;50.788;12.904;2022-10-31T07:22:54;98108.22;;;12.87;72.92
72038;BME280;59900;50.788;12.904;2022-10-31T07:25:19;98113.91;;;12.91;72.73
72038;BME280;59900;50.788;12.904;2022-10-31T07:27:45;98109.84;;;12.95;73.01
72038;BME280;59900;50.788;12.904;2022-10-31T07:30:11;98110.69;;;12.96;73.87
72038;BME280;59900;50.788;12.904;2022-10-31T07:32:41;98112.91;;;12.99;72.90
72038;BME280;59900;50.788;12.904;2022-10-31T07:35:08;98112.91;;;12.99;73.60
72038;BME280;59900;50.788;12.904;2022-10-31T07:37:34;98110.50;;;13.04;73.63
72038;BME280;59900;50.788;12.904;2022-10-31T07:39:59;98118.22;;;13.05;73.77
72038;BME280;59900;50.788;12.904;2022-10-31T07:42:25;98113.41;;;13.09;74.15
72038;BME280;59900;50.788;12.904;2022-10-31T07:44:50;98115.03;;;13.10;74.05
72038;BME280;59900;50.788;12.904;2022-10-31T07:47:15;98118.28;;;13.12;74.32
72038;BME280;59900;50.788;12.904;2022-10-31T07:49:41;98120.31;;;13.16;74.05
72038;BME280;59900;50.788;12.904;2022-10-31T07:52:06;98114.47;;;13.21;73.88
72038;BME280;59900;50.788;12.904;2022-10-31T07:54:31;98113.88;;;13.25;73.82
72038;BME280;59900;50.788;12.904;2022-10-31T07:56:56;98117.94;;;13.28;73.19
72038;BME280;59900;50.788;12.904;2022-10-31T07:59:22;98117.34;;;13.32;73.22
72038;BME280;59900;50.788;12.904;2022-10-31T08:01:47;98109.22;;;13.34;73.29
72038;BME280;59900;50.788;12.904;2022-10-31T08:04:12;98110.47;;;13.38;73.35
72038;BME280;59900;50.788;12.904;2022-10-31T08:06:37;98110.25;;;13.39;73.30
72038;BME280;59900;50.788;12.904;2022-10-31T08:09:03;98114.13;;;13.43;73.91
72038;BME280;59900;50.788;12.904;2022-10-31T08:11:28;98104.19;;;13.52;73.72
72038;BME280;59900;50.788;12.904;2022-10-31T08:13:53;98111.09;;;13.60;73.77
72038;BME280;59900;50.788;12.904;2022-10-31T08:16:19;98111.53;;;13.70;73.70
72038;BME280;59900;50.788;12.904;2022-10-31T08:18:44;98109.09;;;13.75;73.37
72038;BME280;59900;50.788;12.904;2022-10-31T08:21:09;98109.09;;;13.81;73.29
72038;BME280;59900;50.788;12.904;2022-10-31T08:23:35;98106.47;;;13.88;72.99
72038;BME280;59900;50.788;12.904;2022-10-31T08:26:00;98108.69;;;13.97;72.47
72038;BME280;59900;50.788;12.904;2022-10-31T08:28:26;98105.66;;;14.07;72.38
72038;BME280;59900;50.788;12.904;2022-10-31T08:30:51;98105.44;;;14.15;72.58
72038;BME280;59900;50.788;12.904;2022-10-31T08:33:18;98106.25;;;14.22;72.48
72038;BME280;59900;50.788;12.904;2022-10-31T08:35:44;98104.59;;;14.28;72.16
72038;BME280;59900;50.788;12.904;2022-10-31T08:38:11;98108.69;;;14.37;72.09
72038;BME280;59900;50.788;12.904;2022-10-31T08:40:37;98106.88;;;14.44;71.66
72038;BME280;59900;50.788;12.904;2022-10-31T08:43:05;98098.91;;;14.50;72.80
72038;BME280;59900;50.788;12.904;2022-10-31T08:45:32;98102.34;;;14.57;72.12
72038;BME280;59900;50.788;12.904;2022-10-31T08:48:08;98106.59;;;14.65;72.06
72038;BME280;59900;50.788;12.904;2022-10-31T08:50:35;98097.63;;;14.73;72.07
72038;BME280;59900;50.788;12.904;2022-10-31T08:53:02;98100.66;;;14.83;71.77
72038;BME280;59900;50.788;12.904;2022-10-31T08:55:27;98090.84;;;14.90;71.79
72038;BME280;59900;50.788;12.904;2022-10-31T08:57:57;98098.38;;;14.99;71.47
72038;BME280;59900;50.788;12.904;2022-10-31T09:00:23;98099.94;;;15.07;70.57
72038;BME280;59900;50.788;12.904;2022-10-31T09:02:54;98105.00;;;15.15;70.80
72038;BME280;59900;50.788;12.904;2022-10-31T09:05:20;98099.47;;;15.23;69.77
72038;BME280;59900;50.788;12.904;2022-10-31T09:07:45;98100.47;;;15.29;70.02
72038;BME280;59900;50.788;12.904;2022-10-31T09:10:10;98098.22;;;15.32;69.95
72038;BME280;59900;50.788;12.904;2022-10-31T09:12:35;98103.06;;;15.35;69.44
72038;BME280;59900;50.788;12.904;2022-10-31T09:15:01;98099.78;;;15.40;68.76
72038;BME280;59900;50.788;12.904;2022-10-31T09:17:27;98102.22;;;15.48;68.62
72038;BME280;59900;50.788;12.904;2022-10-31T09:19:52;98106.06;;;15.52;68.80
72038;BME280;59900;50.788;12.904;2022-10-31T09:22:18;98105.41;;;15.56;68.32
72038;BME280;59900;50.788;12.904;2022-10-31T09:24:43;98105.22;;;15.58;68.68
72038;BME280;59900;50.788;12.904;2022-10-31T09:27:09;98098.66;;;15.60;67.82
72038;BME280;59900;50.788;12.904;2022-10-31T09:29:34;98100.03;;;15.69;67.87
72038;BME280;59900;50.788;12.904;2022-10-31T09:31:59;98096.31;;;15.77;67.38
72038;BME280;59900;50.788;12.904;2022-10-31T09:34:24;98091.97;;;15.83;67.39
72038;BME280;59900;50.788;12.904;2022-10-31T09:36:50;98095.59;;;15.88;67.61
72038;BME280;59900;50.788;12.904;2022-10-31T09:39:15;98097.81;;;15.91;67.44
72038;BME280;59900;50.788;12.904;2022-10-31T09:41:59;98092.75;;;15.90;66.31
72038;BME280;59900;50.788;12.904;2022-10-31T09:44:39;98099.63;;;15.97;68.00
72038;BME280;59900;50.788;12.904;2022-10-31T09:47:35;98087.50;;;16.08;68.43
72038;BME280;59900;50.788;12.904;2022-10-31T09:50:24;98090.69;;;16.16;68.76
72038;BME280;59900;50.788;12.904;2022-10-31T09:53:03;98086.94;;;16.24;70.02
72038;BME280;59900;50.788;12.904;2022-10-31T09:55:40;98087.31;;;16.27;70.29
72038;BME280;59900;50.788;12.904;2022-10-31T09:58:20;98089.09;;;16.34;69.35
72038;BME280;59900;50.788;12.904;2022-10-31T10:00:47;98091.09;;;16.38;70.55
72038;BME280;59900;50.788;12.904;2022-10-31T10:03:35;98087.13;;;16.47;69.79
72038;BME280;59900;50.788;12.904;2022-10-31T10:06:15;98088.09;;;16.53;68.62
72038;BME280;59900;50.788;12.904;2022-10-31T10:08:41;98083.34;;;16.61;68.92
72038;BME280;59900;50.788;12.904;2022-10-31T10:11:49;98085.91;;;16.68;68.99
72038;BME280;59900;50.788;12.904;2022-10-31T10:14:26;98084.66;;;16.70;70.25
72038;BME280;59900;50.788;12.904;2022-10-31T10:17:33;98080.69;;;16.79;69.04
72038;BME280;59900;50.788;12.904;2022-10-31T10:20:16;98069.63;;;16.83;70.77
72038;BME280;59900;50.788;12.904;2022-10-31T10:25:31;98079.19;;;17.02;66.37
72038;BME280;59900;50.788;12.904;2022-10-31T10:28:55;98077.06;;;17.10;67.77
72038;BME280;59900;50.788;12.904;2022-10-31T10:31:06;98070.84;;;17.16;68.97
72038;BME280;59900;50.788;12.904;2022-10-31T10:33:36;98066.47;;;17.22;67.41
72038;BME280;59900;50.788;12.904;2022-10-31T10:36:06;98063.81;;;17.22;66.06
72038;BME280;59900;50.788;12.904;2022-10-31T10:38:51;98060.25;;;17.28;66.20
72038;BME280;59900;50.788;12.904;2022-10-31T10:41:19;98055.06;;;17.33;64.93
72038;BME280;59900;50.788;12.904;2022-10-31T10:43:45;98050.03;;;17.43;65.55
72038;BME280;59900;50.788;12.904;2022-10-31T10:49:17;98047.19;;;17.56;65.34
72038;BME280;59900;50.788;12.904;2022-10-31T10:51:59;98042.25;;;17.60;64.93
72038;BME280;59900;50.788;12.904;2022-10-31T10:57:42;98037.31;;;17.75;65.73
72038;BME280;59900;50.788;12.904;2022-10-31T11:02:47;98034.41;;;17.76;64.50
72038;BME280;59900;50.788;12.904;2022-10-31T11:05:20;98027.59;;;17.80;64.83
72038;BME280;59900;50.788;12.904;2022-10-31T11:07:47;98031.44;;;17.84;64.58
72038;BME280;59900;50.788;12.904;2022-10-31T11:10:14;98026.78;;;17.91;63.42
72038;BME280;59900;50.788;12.904;2022-10-31T11:12:40;98018.72;;;17.98;62.94
72038;BME280;59900;50.788;12.904;2022-10-31T11:15:23;98023.31;;;18.03;64.72
72038;BME280;59900;50.788;12.904;2022-10-31T11:17:54;98020.34;;;18.11;64.60
72038;BME280;59900;50.788;12.904;2022-10-31T11:22:46;98011.44;;;18.28;61.09
72038;BME280;59900;50.788;12.904;2022-10-31T11:25:25;98018.81;;;18.26;60.51
72038;BME280;59900;50.788;12.904;2022-10-31T11:28:04;98007.03;;;18.34;61.57
72038;BME280;59900;50.788;12.904;2022-10-31T11:30:35;98001.22;;;18.37;61.69
72038;BME280;59900;50.788;12.904;2022-10-31T11:33:16;97998.69;;;18.54;61.13
72038;BME280;59900;50.788;12.904;2022-10-31T11:35:42;98001.19;;;18.72;60.34
72038;BME280;59900;50.788;12.904;2022-10-31T11:38:17;97989.44;;;18.84;61.96
72038;BME280;59900;50.788;12.904;2022-10-31T11:40:52;97989.88;;;18.93;59.53
72038;BME280;59900;50.788;12.904;2022-10-31T11:43:18;97981.72;;;18.99;60.28
72038;BME280;59900;50.788;12.904;2022-10-31T11:45:44;97984.94;;;19.13;58.64
72038;BME280;59900;50.788;12.904;2022-10-31T11:48:21;97980.75;;;19.34;58.81
72038;BME280;59900;50.788;12.904;2022-10-31T11:50:50;97976.09;;;19.41;58.51
72038;BME280;59900;50.788;12.904;2022-10-31T11:53:25;97966.97;;;19.53;57.70
72038;BME280;59900;50.788;12.904;2022-10-31T11:56:12;97969.81;;;19.64;59.45
72038;BME280;59900;50.788;12.904;2022-10-31T11:58:37;97962.94;;;19.68;58.16
72038;BME280;59900;50.788;12.904;2022-10-31T12:01:03;97960.75;;;19.81;56.46
72038;BME280;59900;50.788;12.904;2022-10-31T12:03:37;97952.22;;;20.01;58.36
72038;BME280;59900;50.788;12.904;2022-10-31T12:06:23;97958.34;;;20.18;56.19
72038;BME280;59900;50.788;12.904;2022-10-31T12:08:50;97951.38;;;20.34;56.77
72038;BME280;59900;50.788;12.904;2022-10-31T12:11:42;97948.31;;;20.47;56.64
72038;BME280;59900;50.788;12.904;2022-10-31T12:17:28;97941.53;;;20.83;56.70
72038;BME280;59900;50.788;12.904;2022-10-31T12:22:41;97928.78;;;21.16;57.29
72038;BME280;59900;50.788;12.904;2022-10-31T12:25:28;97930.00;;;21.31;55.13
72038;BME280;59900;50.788;12.904;2022-10-31T12:30:38;97933.50;;;21.73;53.96
72038;BME280;59900;50.788;12.904;2022-10-31T12:33:19;97924.06;;;21.97;54.39
72038;BME280;59900;50.788;12.904;2022-10-31T12:38:48;97915.69;;;22.30;53.01
72038;BME280;59900;50.788;12.904;2022-10-31T12:44:30;97911.97;;;22.47;52.72
72038;BME280;59900;50.788;12.904;2022-10-31T12:56:06;97900.22;;;22.58;53.04
72038;BME280;59900;50.788;12.904;2022-10-31T12:59:13;97891.38;;;22.52;51.29
72038;BME280;59900;50.788;12.904;2022-10-31T13:01:49;97893.28;;;22.57;51.69
72038;BME280;59900;50.788;12.904;2022-10-31T13:04:30;97888.19;;;22.60;50.35
72038;BME280;59900;50.788;12.904;2022-10-31T13:07:07;97888.41;;;22.44;51.04
72038;BME280;59900;50.788;12.904;2022-10-31T13:09:39;97887.63;;;22.53;51.45
72038;BME280;59900;50.788;12.904;2022-10-31T13:12:10;97889.84;;;22.76;51.63
72038;BME280;59900;50.788;12.904;2022-10-31T13:14:47;97885.59;;;22.91;49.92
72038;BME280;59900;50.788;12.904;2022-10-31T13:17:37;97885.88;;;23.09;50.28
72038;BME280;59900;50.788;12.904;2022-10-31T13:20:17;97884.31;;;23.38;51.84
72038;BME280;59900;50.788;12.904;2022-10-31T13:22:48;97885.66;;;23.51;51.73
72038;BME280;59900;50.788;12.904;2022-10-31T13:25:23;97884.81;;;23.61;50.33
72038;BME280;59900;50.788;12.904;2022-10-31T13:28:26;97877.81;;;23.70;49.71
72038;BME280;59900;50.788;12.904;2022-10-31T13:30:53;97881.03;;;23.82;48.91
72038;BME280;59900;50.788;12.904;2022-10-31T13:33:29;97879.63;;;23.99;49.54
72038;BME280;59900;50.788;12.904;2022-10-31T13:36:14;97873.97;;;24.11;48.07
72038;BME280;59900;50.788;12.904;2022-10-31T13:38:51;97867.28;;;24.04;48.36
72038;BME280;59900;50.788;12.904;2022-10-31T13:44:27;97881.28;;;23.75;48.59
72038;BME280;59900;50.788;12.904;2022-10-31T13:46:54;97871.38;;;23.76;48.69
72038;BME280;59900;50.788;12.904;2022-10-31T13:54:42;97865.22;;;23.60;48.44
72038;BME280;59900;50.788;12.904;2022-10-31T13:59:47;97863.63;;;23.24;48.95
72038;BME280;59900;50.788;12.904;2022-10-31T14:02:16;97869.78;;;23.14;49.93
72038;BME280;59900;50.788;12.904;2022-10-31T14:04:48;97867.09;;;22.94;49.83
72038;BME280;59900;50.788;12.904;2022-10-31T14:07:17;97863.88;;;22.77;52.27